Time;durP1;ratioP1;P1;durP2;ratioP2;P2;SDS_P1;SDS_P2;PMS_P1;PMS_P2;Temp;Humidity;BMP_temperature;BMP_pressure;BME280_temperature;BME280_humidity;BME280_pressure;Samples;Min_cycle;Max_cycle;Signal;HPM_P1;HPM_P2
2021/10/01 00:01:42;;;;;;;8.52;5.38;;;;;;;14.78;60.09;101161.81;5069676;28;20024;-21
2021/10/01 00:04:07;;;;;;;9.27;4.93;;;;;;;14.81;59.63;101144.44;5069873;28;20549;-22
2021/10/01 00:06:33;;;;;;;10.70;5.50;;;;;;;14.66;60.70;101158.19;5069597;28;20021;-21
2021/10/01 00:08:58;;;;;;;8.20;5.15;;;;;;;15.17;59.22;101154.41;5069782;28;20492;-21
2021/10/01 00:11:24;;;;;;;11.40;5.70;;;;;;;15.12;59.08;101154.28;5069616;28;20020;-22
2021/10/01 00:13:49;;;;;;;8.88;5.30;;;;;;;15.02;58.93;101140.53;5069516;28;20101;-21
2021/10/01 00:16:15;;;;;;;8.52;5.68;;;;;;;15.01;59.26;101161.19;5069366;28;20028;-22
2021/10/01 00:18:40;;;;;;;11.65;5.68;;;;;;;15.29;58.03;101145.63;5069430;28;20403;-21
2021/10/01 00:21:06;;;;;;;9.77;5.47;;;;;;;15.12;59.15;101148.91;5069437;28;20082;-22
2021/10/01 00:23:32;;;;;;;10.02;5.20;;;;;;;15.36;57.70;101152.56;5069624;28;20032;-21
2021/10/01 00:25:57;;;;;;;9.00;5.50;;;;;;;15.04;59.07;101151.88;5069401;28;20031;-22
2021/10/01 00:28:23;;;;;;;9.98;5.53;;;;;;;14.86;59.10;101152.66;5069252;28;20040;-21
2021/10/01 00:30:48;;;;;;;11.43;6.35;;;;;;;14.99;58.53;101149.84;5068959;28;20039;-22
2021/10/01 00:33:14;;;;;;;10.13;5.78;;;;;;;14.89;59.07;101156.75;5069580;28;20848;-22
2021/10/01 00:35:39;;;;;;;8.23;5.45;;;;;;;14.93;58.38;101139.16;5069028;28;20557;-21
2021/10/01 00:38:05;;;;;;;9.15;5.32;;;;;;;14.98;58.27;101147.41;5069191;28;20119;-21
2021/10/01 00:40:30;;;;;;;9.88;6.20;;;;;;;15.04;58.10;101144.63;5069183;28;20040;-22
2021/10/01 00:42:56;;;;;;;10.18;5.82;;;;;;;15.01;57.83;101138.88;5069262;28;20032;-21
2021/10/01 00:45:21;;;;;;;10.65;5.75;;;;;;;14.89;58.37;101137.97;5068887;28;20028;-22
2021/10/01 00:47:47;;;;;;;12.52;5.95;;;;;;;14.85;58.44;101146.47;5069098;28;20511;-23
2021/10/01 00:50:12;;;;;;;9.27;5.45;;;;;;;14.67;59.29;101143.75;5068911;28;20033;-22
2021/10/01 00:52:38;;;;;;;10.30;5.38;;;;;;;14.68;58.62;101139.19;5068602;28;20041;-23
2021/10/01 00:55:03;;;;;;;8.48;6.13;;;;;;;14.77;58.92;101144.06;5068868;28;20048;-21
2021/10/01 00:57:29;;;;;;;8.45;5.53;;;;;;;14.62;59.32;101133.66;5068764;28;20028;-22
2021/10/01 00:59:54;;;;;;;8.73;5.65;;;;;;;14.50;59.47;101143.41;5068888;28;20051;-21
2021/10/01 01:02:20;;;;;;;10.20;6.30;;;;;;;14.57;59.22;101138.88;5068992;28;20572;-22
2021/10/01 01:04:45;;;;;;;8.85;5.30;;;;;;;14.52;59.15;101135.97;5050855;28;20085;-21
2021/10/01 01:07:19;;;;;;;11.38;5.97;;;;;;;14.62;58.00;101122.09;5034917;28;20090;-21
2021/10/01 01:09:47;;;;;;;10.23;5.93;;;;;;;14.58;58.34;101137.00;5051935;28;20116;-21
2021/10/01 01:12:22;;;;;;;19.65;6.72;;;;;;;14.61;57.98;101145.44;5068749;28;20029;-21
2021/10/01 01:15:04;;;;;;;11.18;6.55;;;;;;;14.45;58.30;101129.84;5068591;28;20062;-21
2021/10/01 01:17:43;;;;;;;11.93;6.00;;;;;;;14.26;58.87;101115.50;5067387;28;20161;-21
2021/10/01 01:20:16;;;;;;;11.45;6.25;;;;;;;14.45;58.31;101130.66;5069078;28;20086;-22
2021/10/01 01:22:58;;;;;;;10.85;6.25;;;;;;;14.40;57.96;101125.13;5050698;28;20024;-21
2021/10/01 01:25:56;;;;;;;11.43;6.25;;;;;;;14.34;58.34;101128.66;5052745;28;20038;-22
2021/10/01 01:28:42;;;;;;;12.20;6.35;;;;;;;14.32;58.15;101128.06;5055413;28;20043;-21
2021/10/01 01:31:17;;;;;;;10.52;6.13;;;;;;;14.26;58.49;101126.25;5050679;28;20548;-21
2021/10/01 01:33:42;;;;;;;9.65;6.07;;;;;;;14.39;57.74;101118.13;5068589;28;20028;-21
2021/10/01 01:36:10;;;;;;;12.93;6.22;;;;;;;14.35;57.51;101114.22;5068416;28;20033;-22
2021/10/01 01:38:39;;;;;;;14.75;7.25;;;;;;;14.37;57.53;101117.50;5050781;28;20055;-21
2021/10/01 01:41:05;;;;;;;10.48;6.38;;;;;;;14.42;57.44;101117.66;5034754;28;20041;-21
2021/10/01 01:43:30;;;;;;;8.63;6.00;;;;;;;14.33;57.91;101121.66;5050185;28;20503;-22
2021/10/01 01:45:56;;;;;;;9.75;6.32;;;;;;;14.03;58.40;101116.91;5050801;28;20024;-22
2021/10/01 01:48:22;;;;;;;11.13;6.90;;;;;;;14.07;58.62;101110.06;5067169;28;20028;-22
2021/10/01 01:50:47;;;;;;;11.55;6.57;;;;;;;14.05;58.60;101120.19;5050138;28;20468;-22
2021/10/01 01:53:13;;;;;;;10.85;5.80;;;;;;;13.76;59.44;101110.06;5068105;28;20033;-21
2021/10/01 01:55:39;;;;;;;11.32;6.32;;;;;;;13.96;59.07;101123.38;5034367;28;20029;-21
2021/10/01 01:58:04;;;;;;;10.80;6.45;;;;;;;13.97;59.06;101128.50;5054253;28;20036;-22
2021/10/01 02:00:30;;;;;;;12.50;6.32;;;;;;;13.82;59.32;101119.94;5070832;28;20055;-22
2021/10/01 02:02:55;;;;;;;10.65;6.50;;;;;;;13.66;59.62;101111.34;5054108;28;20518;-22
2021/10/01 02:05:21;;;;;;;13.05;7.28;;;;;;;13.85;59.09;101114.13;5071965;28;20041;-22
2021/10/01 02:07:47;;;;;;;10.02;6.53;;;;;;;14.10;58.12;101114.22;5072349;28;20404;-22
2021/10/01 02:10:14;;;;;;;12.43;7.55;;;;;;;13.94;59.16;101123.59;5054258;28;20103;-22
2021/10/01 02:12:39;;;;;;;11.13;6.70;;;;;;;13.94;58.88;101126.25;5054197;28;20029;-21
2021/10/01 02:15:05;;;;;;;11.50;7.05;;;;;;;13.90;59.32;101133.09;5070825;28;20034;-21
2021/10/01 02:17:32;;;;;;;11.93;6.47;;;;;;;13.77;58.61;101114.38;5071842;28;20569;-22
2021/10/01 02:19:58;;;;;;;10.55;6.70;;;;;;;14.01;57.90;101104.75;5053905;28;20036;-22
2021/10/01 02:22:24;;;;;;;11.57;6.82;;;;;;;14.15;58.43;101132.31;5071810;28;20123;-22
2021/10/01 02:24:49;;;;;;;10.98;6.68;;;;;;;13.83;59.76;101116.19;5071504;28;20040;-22
2021/10/01 02:27:20;;;;;;;9.57;6.53;;;;;;;13.94;58.76;101112.84;5071637;28;20029;-22
2021/10/01 02:29:55;;;;;;;12.50;6.53;;;;;;;13.68;59.00;101127.22;5037566;28;20058;-22
2021/10/01 02:32:28;;;;;;;13.00;6.45;;;;;;;14.19;57.80;101128.16;5071595;28;20029;-22
2021/10/01 02:34:54;;;;;;;10.27;6.00;;;;;;;14.64;56.00;101125.38;5037696;28;20082;-22
2021/10/01 02:37:19;;;;;;;13.10;7.53;;;;;;;14.52;55.42;101106.44;5070186;28;20028;-22
2021/10/01 02:39:46;;;;;;;11.10;7.68;;;;;;;14.31;56.29;101113.03;5071316;28;20404;-22
2021/10/01 02:42:12;;;;;;;9.23;7.00;;;;;;;14.78;56.02;101124.22;5053508;28;20043;-22
2021/10/01 02:44:38;;;;;;;17.35;10.02;;;;;;;14.56;55.58;101112.22;5071437;28;20041;-21
2021/10/01 02:47:04;;;;;;;19.52;10.73;;;;;;;14.65;55.40;101124.34;5071527;28;20408;-21
2021/10/01 02:49:29;;;;;;;19.70;9.70;;;;;;;14.56;56.28;101114.91;5071257;28;20025;-21
2021/10/01 02:51:58;;;;;;;19.27;10.57;;;;;;;13.98;58.54;101124.78;5071284;28;20036;-22
2021/10/01 02:54:26;;;;;;;23.42;10.15;;;;;;;14.29;57.79;101136.56;5052979;28;20052;-22
2021/10/01 02:56:55;;;;;;;16.77;9.70;;;;;;;14.41;57.07;101118.72;5036496;28;20135;-22
2021/10/01 02:59:22;;;;;;;14.85;8.57;;;;;;;14.84;55.30;101115.28;5053838;28;20086;-21
2021/10/01 03:01:48;;;;;;;16.60;9.02;;;;;;;15.11;55.42;101131.13;5053194;28;20035;-21
2021/10/01 03:04:13;;;;;;;18.77;9.23;;;;;;;14.60;56.94;101132.22;5069878;28;20029;-22
2021/10/01 03:06:43;;;;;;;16.65;9.70;;;;;;;14.36;57.21;101134.63;5069516;28;20028;-21
2021/10/01 03:09:09;;;;;;;16.15;8.93;;;;;;;14.56;56.96;101136.38;5069848;28;20543;-22
2021/10/01 03:11:34;;;;;;;14.40;9.23;;;;;;;14.47;57.16;101133.94;5052941;28;20032;-22
2021/10/01 03:14:00;;;;;;;14.43;8.65;;;;;;;14.44;57.21;101118.31;5052932;28;20032;-21
2021/10/01 03:16:26;;;;;;;19.67;9.00;;;;;;;14.88;55.71;101122.91;5070552;28;20033;-21
2021/10/01 03:18:51;;;;;;;12.88;8.05;;;;;;;15.00;55.01;101127.31;5070475;28;20041;-22
2021/10/01 03:21:18;;;;;;;16.02;7.63;;;;;;;14.75;55.09;101108.56;5052839;28;20415;-21
2021/10/01 03:23:43;;;;;;;13.63;8.20;;;;;;;14.74;55.23;101109.59;5036146;28;20025;-22
2021/10/01 03:26:09;;;;;;;17.73;8.70;;;;;;;14.93;55.10;101120.38;5070621;28;20036;-22
2021/10/01 03:28:36;;;;;;;15.30;7.82;;;;;;;14.96;53.99;101103.81;5070557;28;20082;-22
2021/10/01 03:31:02;;;;;;;14.55;7.82;;;;;;;14.67;55.39;101116.91;5036276;28;20967;-23
2021/10/01 03:33:28;;;;;;;12.45;6.82;;;;;;;14.62;55.76;101119.41;5069123;28;20040;-21
2021/10/01 03:35:54;;;;;;;12.73;6.38;;;;;;;14.46;55.89;101121.59;5070293;28;20033;-22
2021/10/01 03:38:19;;;;;;;13.63;6.93;;;;;;;14.18;56.68;101123.84;5052303;28;20043;-22
2021/10/01 03:40:46;;;;;;;11.95;7.13;;;;;;;14.04;56.71;101091.75;5052375;28;20036;-21
2021/10/01 03:43:12;;;;;;;12.05;6.45;;;;;;;14.04;57.13;101105.16;5052390;28;20415;-21
2021/10/01 03:45:38;;;;;;;11.02;6.55;;;;;;;14.31;56.72;101121.06;5070186;28;20499;-21
2021/10/01 03:48:04;;;;;;;11.90;6.18;;;;;;;14.19;56.80;101120.13;5070196;28;20028;-22
2021/10/01 03:50:30;;;;;;;13.00;6.25;;;;;;;14.34;56.73;101123.31;5070116;28;20051;-21
2021/10/01 03:52:56;;;;;;;12.10;6.07;;;;;;;14.49;55.88;101103.41;5069692;28;20123;-22
2021/10/01 03:55:22;;;;;;;11.25;7.10;;;;;;;14.46;56.11;101129.63;5069871;28;20105;-21
2021/10/01 03:57:48;;;;;;;15.00;7.03;;;;;;;14.33;56.64;101128.91;5069625;28;20020;-22
2021/10/01 04:00:14;;;;;;;12.50;8.95;;;;;;;13.98;57.17;101122.13;5069923;28;20037;-21
2021/10/01 04:02:39;;;;;;;14.85;10.65;;;;;;;13.56;58.60;101126.25;5069691;28;20158;-21
2021/10/01 04:05:05;;;;;;;17.02;10.23;;;;;;;13.10;61.15;101133.38;5069802;28;20447;-22
2021/10/01 04:07:31;;;;;;;12.25;7.53;;;;;;;12.87;61.31;101120.41;5069667;28;20037;-22
2021/10/01 04:09:56;;;;;;;13.13;7.45;;;;;;;13.08;61.27;101127.41;5069737;28;20059;-22
2021/10/01 04:12:23;;;;;;;12.60;6.90;;;;;;;13.58;59.78;101130.34;5069731;28;20028;-21
2021/10/01 04:14:49;;;;;;;13.85;6.78;;;;;;;13.74;58.67;101133.59;5069420;28;20457;-22
2021/10/01 04:17:16;;;;;;;12.35;7.00;;;;;;;13.88;57.94;101135.16;5069795;28;20476;-22
2021/10/01 04:19:41;;;;;;;12.57;7.45;;;;;;;14.00;57.65;101135.31;5069369;28;20052;-22
2021/10/01 04:22:07;;;;;;;15.73;7.75;;;;;;;14.07;57.11;101144.94;5069539;28;20028;-22
2021/10/01 04:24:32;;;;;;;14.30;7.60;;;;;;;13.68;59.09;101145.16;5069559;28;20428;-22
2021/10/01 04:26:58;;;;;;;15.82;7.75;;;;;;;13.61;58.92;101140.66;5069554;28;20024;-22
2021/10/01 04:29:23;;;;;;;18.23;8.18;;;;;;;13.87;57.97;101149.59;5069230;28;20024;-22
2021/10/01 04:31:49;;;;;;;12.70;9.00;;;;;;;13.78;57.31;101140.97;5069317;28;20085;-22
2021/10/01 04:34:14;;;;;;;13.23;9.10;;;;;;;13.83;57.43;101153.75;5069230;28;20507;-22
2021/10/01 04:36:39;;;;;;;18.55;11.05;;;;;;;14.29;56.19;101144.63;5068844;28;20024;-21
2021/10/01 04:39:05;;;;;;;21.38;11.30;;;;;;;14.38;55.57;101154.03;5069245;28;20039;-22
2021/10/01 04:41:30;;;;;;;18.98;12.05;;;;;;;14.13;56.13;101142.44;5069061;28;20078;-23
2021/10/01 04:43:56;;;;;;;19.73;12.18;;;;;;;14.04;56.49;101145.38;5069121;28;20033;-22
2021/10/01 04:46:22;;;;;;;21.63;10.82;;;;;;;13.66;57.24;101132.78;5069178;28;20024;-22
2021/10/01 04:48:49;;;;;;;26.73;12.65;;;;;;;13.95;56.78;101135.94;5068963;28;20032;-22
2021/10/01 04:51:15;;;;;;;42.80;12.85;;;;;;;14.24;56.60;101163.22;5068931;28;20039;-22
2021/10/01 04:53:40;;;;;;;14.82;10.32;;;;;;;13.99;56.85;101158.59;5068947;28;20052;-21
2021/10/01 04:56:05;;;;;;;18.70;10.25;;;;;;;13.83;57.64;101151.91;5069167;28;20033;-22
2021/10/01 04:58:31;;;;;;;15.27;8.80;;;;;;;13.99;57.55;101157.78;5069104;28;20048;-22
2021/10/01 05:01:01;;;;;;;15.82;7.38;;;;;;;13.56;59.26;101175.28;5068796;28;20482;-22
2021/10/01 05:03:28;;;;;;;15.13;8.23;;;;;;;13.74;59.40;101176.47;5069056;28;20067;-21
2021/10/01 05:05:53;;;;;;;15.70;6.90;;;;;;;14.16;58.64;101190.28;5051359;28;20125;-21
2021/10/01 05:08:19;;;;;;;11.18;6.15;;;;;;;14.16;59.01;101190.28;5069046;28;20832;-22
2021/10/01 05:10:44;;;;;;;9.52;5.38;;;;;;;13.89;59.97;101190.41;5068569;28;20032;-21
2021/10/01 05:13:09;;;;;;;9.40;5.75;;;;;;;14.14;59.47;101193.22;5068819;28;20032;-22
2021/10/01 05:15:35;;;;;;;9.30;4.93;;;;;;;13.57;60.86;101160.88;5068911;28;20036;-21
2021/10/01 05:18:01;;;;;;;9.57;5.32;;;;;;;13.75;61.05;101192.38;5068856;28;20059;-21
2021/10/01 05:20:26;;;;;;;8.50;5.10;;;;;;;13.71;61.22;101176.88;5068649;28;20041;-22
2021/10/01 05:22:52;;;;;;;7.35;4.70;;;;;;;14.10;59.68;101181.25;5068410;28;20093;-22
2021/10/01 05:25:17;;;;;;;8.75;4.60;;;;;;;14.18;59.38;101188.22;5068621;28;20024;-22
2021/10/01 05:27:43;;;;;;;8.20;4.68;;;;;;;13.92;59.49;101190.00;5068722;28;20043;-22
2021/10/01 05:30:09;;;;;;;12.75;5.25;;;;;;;14.01;59.00;101188.72;5068668;28;20032;-22
2021/10/01 05:32:34;;;;;;;12.10;5.15;;;;;;;14.59;56.99;101195.03;5071760;28;20020;-21
2021/10/01 05:35:00;;;;;;;7.80;4.90;;;;;;;14.48;55.77;101199.19;5072607;28;20040;-22
2021/10/01 05:37:25;;;;;;;7.95;4.68;;;;;;;14.68;55.27;101209.00;5072718;28;20039;-22
2021/10/01 05:39:51;;;;;;;8.40;5.35;;;;;;;14.54;55.31;101203.69;5072611;28;20043;-23
2021/10/01 05:42:16;;;;;;;15.15;5.88;;;;;;;14.43;56.49;101197.16;5072584;28;20040;-22
2021/10/01 05:44:42;;;;;;;26.75;6.88;;;;;;;14.06;56.73;101201.50;5072288;28;20036;-21
2021/10/01 05:47:07;;;;;;;10.52;4.97;;;;;;;14.35;56.00;101215.38;5072554;28;20476;-22
2021/10/01 05:49:38;;;;;;;9.30;5.45;;;;;;;14.53;54.85;101218.16;5072327;28;20067;-22
2021/10/01 05:54:45;;;;;;;14.30;7.18;;;;;;;14.57;52.97;101207.84;5072064;28;20049;-22
2021/10/01 05:57:11;;;;;;;27.80;16.10;;;;;;;14.79;51.44;101217.19;5072116;28;20036;-22
2021/10/01 05:59:40;;;;;;;14.50;8.55;;;;;;;13.96;52.30;101193.91;5072311;28;20403;-22
2021/10/01 06:02:10;;;;;;;16.67;8.52;;;;;;;14.00;52.46;101197.81;5072206;28;20028;-22
2021/10/01 06:04:35;;;;;;;16.73;7.38;;;;;;;14.92;50.29;101212.75;5054190;28;20028;-22
2021/10/01 06:07:00;;;;;;;19.38;6.85;;;;;;;15.46;49.28;101217.38;5072044;28;20032;-22
2021/10/01 06:09:26;;;;;;;16.17;7.78;;;;;;;15.45;48.55;101220.31;5071900;28;20052;-21
2021/10/01 06:11:51;;;;;;;28.50;14.88;;;;;;;15.77;47.46;101220.16;5072148;28;20040;-22
2021/10/01 06:14:22;;;;;;;44.03;17.88;;;;;;;15.88;48.08;101224.81;5071835;28;20032;-22
2021/10/01 06:16:48;;;;;;;13.00;7.85;;;;;;;16.09;45.92;101225.38;5071652;28;20057;-22
2021/10/01 06:19:14;;;;;;;11.43;7.00;;;;;;;15.90;45.26;101228.09;5071740;28;20024;-22
2021/10/01 06:21:40;;;;;;;14.50;9.50;;;;;;;15.85;45.07;101236.00;5071171;28;20039;-22
2021/10/01 06:24:05;;;;;;;13.15;7.55;;;;;;;15.67;44.91;101228.72;5071632;28;20032;-22
2021/10/01 06:26:31;;;;;;;14.32;8.35;;;;;;;16.07;44.01;101237.19;5071695;28;20033;-22
2021/10/01 06:28:56;;;;;;;19.30;8.68;;;;;;;15.99;44.63;101236.66;5071325;28;20035;-22
2021/10/01 06:31:21;;;;;;;12.35;7.15;;;;;;;16.01;44.86;101243.47;5071563;28;20044;-22
2021/10/01 06:33:47;;;;;;;13.65;7.53;;;;;;;15.95;44.00;101247.06;5071208;28;20039;-22
2021/10/01 06:36:16;;;;;;;9.32;6.65;;;;;;;16.01;44.20;101245.34;5071534;28;20031;-22
2021/10/01 06:38:42;;;;;;;9.88;6.85;;;;;;;16.00;44.20;101244.53;5071321;28;20036;-22
2021/10/01 06:41:07;;;;;;;14.32;6.82;;;;;;;15.96;44.55;101237.13;5071394;28;20028;-22
2021/10/01 06:43:33;;;;;;;7.80;5.00;;;;;;;16.11;44.05;101236.75;5071123;28;20028;-22
2021/10/01 06:45:59;;;;;;;11.52;5.65;;;;;;;15.97;45.05;101247.66;5071500;28;20195;-22
2021/10/01 08:20:31;;;;;;;10.98;4.10;;;;;;;18.25;37.77;101210.44;5069808;28;20094;-21
2021/10/01 08:22:57;;;;;;;11.75;3.60;;;;;;;17.83;37.95;101216.09;5069411;28;20044;-21
2021/10/01 08:25:23;;;;;;;16.02;3.90;;;;;;;17.77;37.55;101203.53;5069749;28;20032;-21
2021/10/01 08:27:48;;;;;;;8.00;2.92;;;;;;;17.65;39.59;101200.84;5069329;28;20033;-22
2021/10/01 08:30:14;;;;;;;16.48;6.63;;;;;;;17.53;38.88;101194.66;5069554;28;20033;-21
2021/10/01 08:32:41;;;;;;;10.82;3.90;;;;;;;18.13;37.48;101191.59;5068947;28;20040;-21
2021/10/01 08:35:07;;;;;;;13.73;6.40;;;;;;;18.27;37.34;101182.13;5069212;28;20040;-21
2021/10/01 08:37:32;;;;;;;14.20;5.70;;;;;;;18.29;37.69;101190.00;5069256;28;20115;-21
2021/10/01 08:39:58;;;;;;;13.07;5.38;;;;;;;18.32;39.05;101189.50;5069276;28;20502;-22
2021/10/01 08:42:23;;;;;;;18.73;4.20;;;;;;;18.53;37.94;101192.56;5069071;28;20048;-22
2021/10/01 08:44:49;;;;;;;15.93;7.63;;;;;;;18.84;36.51;101186.63;5068951;28;20024;-21
2021/10/01 08:47:14;;;;;;;13.98;7.20;;;;;;;18.90;36.69;101162.38;5069138;28;20457;-22
2021/10/01 08:49:40;;;;;;;19.80;7.72;;;;;;;19.11;37.78;101175.13;5051192;28;20024;-21
2021/10/01 08:52:07;;;;;;;28.08;7.53;;;;;;;19.50;35.47;101185.91;5067986;28;20427;-21
2021/10/01 08:54:32;;;;;;;18.58;4.85;;;;;;;19.49;34.14;101178.84;5068931;28;20485;-22
2021/10/01 08:56:58;;;;;;;8.10;3.80;;;;;;;19.47;34.35;101181.00;5067576;28;20488;-22
2021/10/01 08:59:23;;;;;;;4.63;3.08;;;;;;;19.36;35.43;101184.66;5068950;28;20032;-22
2021/10/01 09:01:49;;;;;;;7.05;3.00;;;;;;;19.37;35.18;101178.16;5068920;28;20024;-21
2021/10/01 09:04:14;;;;;;;9.55;3.88;;;;;;;19.60;35.99;101167.13;5069051;28;20044;-21
2021/10/01 09:06:40;;;;;;;5.82;2.88;;;;;;;19.16;35.40;101177.06;5050157;28;20028;-22
2021/10/01 09:09:05;;;;;;;4.40;2.53;;;;;;;19.14;36.37;101162.97;5068699;28;20121;-21
2021/10/01 09:11:36;;;;;;;5.75;2.60;;;;;;;19.42;36.18;101172.84;5068652;28;20039;-21
2021/10/01 09:14:08;;;;;;;5.35;2.60;;;;;;;19.63;33.85;101177.41;5069272;28;20028;-22
2021/10/01 09:16:34;;;;;;;6.35;3.13;;;;;;;19.98;34.13;101178.09;5068547;28;20035;-21
2021/10/01 09:18:59;;;;;;;9.10;3.35;;;;;;;20.12;34.10;101171.22;5068748;28;20040;-22
2021/10/01 09:21:25;;;;;;;6.50;2.60;;;;;;;20.06;33.34;101148.72;5068672;28;20036;-21
2021/10/01 09:24:04;;;;;;;7.05;3.20;;;;;;;20.50;33.46;101160.47;5068663;28;20044;-21
2021/10/01 09:26:31;;;;;;;6.13;2.80;;;;;;;20.67;32.96;101153.84;5068734;28;20028;-22
2021/10/01 09:29:02;;;;;;;4.95;2.40;;;;;;;21.14;32.82;101173.94;5068756;28;20547;-22
2021/10/01 09:31:48;;;;;;;4.65;2.65;;;;;;;21.47;32.54;101152.97;5068671;28;20230;-21
2021/10/01 09:34:23;;;;;;;4.68;2.90;;;;;;;21.14;32.69;101160.38;5068091;28;20044;-21
2021/10/01 09:37:05;;;;;;;6.28;3.20;;;;;;;21.14;31.23;101173.94;5068437;28;20028;-21
2021/10/01 09:39:33;;;;;;;4.30;2.63;;;;;;;21.20;31.83;101172.91;5068551;28;20032;-21
2021/10/01 09:41:59;;;;;;;;;;;;;;;22.04;30.25;101171.06;5068994;28;20024;-22
2021/10/01 09:44:28;;;;;;;4.18;2.50;;;;;;;22.04;29.32;101160.19;5068579;28;19948;-21
2021/10/01 09:46:54;;;;;;;5.38;2.50;;;;;;;21.92;29.93;101146.06;5068095;28;20412;-21
2021/10/01 09:49:31;;;;;;;7.10;2.80;;;;;;;21.57;29.93;101153.03;5068424;28;20033;-21
2021/10/01 09:51:57;;;;;;;5.47;2.75;;;;;;;21.19;31.03;101149.56;5068434;28;20446;-22
2021/10/01 09:54:24;;;;;;;6.22;2.90;;;;;;;21.11;30.95;101141.13;5068075;28;20060;-21
2021/10/01 09:56:49;;;;;;;4.72;2.67;;;;;;;21.00;30.97;101145.66;5068117;28;20024;-21
2021/10/01 09:59:17;;;;;;;5.07;2.70;;;;;;;20.89;30.35;101133.94;5068448;28;20400;-21
2021/10/01 10:02:12;;;;;;;5.28;2.65;;;;;;;20.76;31.13;101153.34;5068349;28;20086;-21
2021/10/01 10:04:52;;;;;;;6.82;2.83;;;;;;;20.89;31.32;101123.09;5067981;28;20024;-21
2021/10/01 10:07:22;;;;;;;5.70;2.75;;;;;;;20.76;30.97;101159.63;5068373;28;20036;-21
2021/10/01 10:09:50;;;;;;;4.72;3.20;;;;;;;19.94;32.09;101139.94;5068202;28;20114;-22
2021/10/01 10:12:37;;;;;;;7.28;2.95;;;;;;;19.93;33.45;101140.16;5068303;28;20028;-21
2021/10/01 10:15:04;;;;;;;5.03;2.90;;;;;;;20.03;32.11;101132.97;5067475;28;20040;-21
2021/10/01 10:17:30;;;;;;;8.02;3.00;;;;;;;20.22;32.04;101151.56;5069753;28;20021;-21
2021/10/01 10:19:57;;;;;;;6.57;2.88;;;;;;;20.04;32.10;101144.59;5071906;28;20032;-21
2021/10/01 10:22:23;;;;;;;7.00;2.80;;;;;;;20.16;31.78;101128.19;5072125;28;20036;-22
2021/10/01 10:24:49;;;;;;;6.13;2.72;;;;;;;20.33;31.93;101130.78;5071567;28;20028;-21
2021/10/01 10:27:15;;;;;;;6.80;2.67;;;;;;;20.04;32.33;101140.03;5070414;28;20575;-21
2021/10/01 10:29:42;;;;;;;5.88;2.60;;;;;;;20.32;31.06;101143.50;5071744;28;20024;-21
2021/10/01 10:32:09;;;;;;;5.40;2.60;;;;;;;20.17;32.63;101111.69;5071539;28;20070;-21
2021/10/01 10:34:34;;;;;;;4.60;2.30;;;;;;;21.01;29.07;101115.56;5071246;28;20111;-22
2021/10/01 10:37:05;;;;;;;6.80;2.88;;;;;;;21.55;29.57;101125.31;5071544;28;20029;-22
2021/10/01 10:39:35;;;;;;;4.80;2.60;;;;;;;21.72;30.88;101108.00;5071427;28;20028;-22
2021/10/01 10:42:00;;;;;;;6.40;2.45;;;;;;;21.66;29.08;101127.00;5071402;28;20035;-22
2021/10/01 10:44:41;;;;;;;5.20;2.60;;;;;;;21.55;29.44;101098.19;5071450;28;20028;-22
2021/10/01 10:47:06;;;;;;;11.27;6.38;;;;;;;22.38;28.26;101124.41;5071619;28;20032;-21
2021/10/01 10:49:32;;;;;;;5.25;2.75;;;;;;;22.39;28.46;101114.34;5071145;28;20035;-21
2021/10/01 10:51:57;;;;;;;21.08;12.48;;;;;;;21.52;29.48;101106.06;5071277;28;20028;-21
2021/10/01 10:54:24;;;;;;;13.45;8.18;;;;;;;22.21;29.11;101089.34;5070922;28;20093;-21
2021/10/01 10:57:25;;;;;;;9.50;3.30;;;;;;;21.64;29.47;101118.31;5071041;28;20020;-21
2021/10/01 10:59:55;;;;;;;4.82;2.95;;;;;;;21.97;29.76;101105.34;5071024;28;20059;-21
2021/10/01 11:02:27;;;;;;;10.40;3.00;;;;;;;21.71;28.99;101106.38;5071100;28;20033;-21
2021/10/01 11:05:19;;;;;;;5.32;2.80;;;;;;;21.14;29.84;101100.72;5071051;28;20036;-21
2021/10/01 11:07:46;;;;;;;4.38;2.40;;;;;;;20.97;30.01;101097.38;5070912;28;20036;-22
2021/10/01 11:10:46;;;;;;;8.07;2.70;;;;;;;21.32;28.77;101093.22;5070758;28;20115;-22
2021/10/01 11:13:21;;;;;;;8.30;2.65;;;;;;;22.86;27.38;101084.13;5070925;28;20040;-21
2021/10/01 11:16:08;;;;;;;5.70;2.42;;;;;;;23.71;25.57;101087.03;5070817;28;20040;-21
2021/10/01 11:18:43;;;;;;;6.32;2.30;;;;;;;23.09;26.32;101081.88;5070491;28;20024;-21
2021/10/01 11:24:11;;;;;;;5.90;2.70;;;;;;;23.96;25.41;101081.41;5070821;28;20806;-21
2021/10/01 11:26:47;;;;;;;5.07;2.17;;;;;;;23.01;26.90;101074.28;5070408;28;20028;-21
2021/10/01 11:29:25;;;;;;;3.83;2.30;;;;;;;22.58;26.99;101066.50;5069623;28;20040;-21
2021/10/01 11:31:56;;;;;;;5.03;2.55;;;;;;;22.65;27.12;101071.63;5070905;28;20121;-21
2021/10/01 11:34:44;;;;;;;4.53;2.67;;;;;;;22.03;28.43;101077.09;5070130;28;20419;-22
2021/10/01 11:37:22;;;;;;;3.95;2.60;;;;;;;21.80;27.94;101043.16;5070392;28;20105;-22
2021/10/01 11:39:47;;;;;;;4.65;2.53;;;;;;;22.37;27.78;101049.41;5070332;28;20500;-22
2021/10/01 11:42:23;;;;;;;4.03;2.38;;;;;;;21.96;28.86;101062.97;5070633;28;20067;-21
2021/10/01 11:44:48;;;;;;;4.22;2.42;;;;;;;22.22;27.37;101042.03;5070098;28;20055;-22
2021/10/01 11:47:14;;;;;;;7.45;2.35;;;;;;;23.20;26.49;101031.75;5070126;28;20500;-22
2021/10/01 11:49:39;;;;;;;6.85;2.42;;;;;;;24.37;25.45;101048.34;5070155;28;20074;-21
2021/10/01 11:52:09;;;;;;;5.25;2.30;;;;;;;24.08;25.61;101061.16;5052186;28;20815;-22
2021/10/01 11:54:35;;;;;;;6.53;2.40;;;;;;;22.53;27.59;101033.88;5069775;28;20049;-21
2021/10/01 11:57:06;;;;;;;8.05;2.88;;;;;;;22.12;28.60;101044.78;5052028;28;20082;-22
2021/10/01 12:00:01;;;;;;;4.95;2.30;;;;;;;22.22;27.99;101057.53;5069940;28;20043;-21
2021/10/01 12:02:38;;;;;;;4.28;2.60;;;;;;;20.99;29.14;101046.41;5069747;28;20115;-22
2021/10/01 12:05:19;;;;;;;4.38;2.78;;;;;;;20.47;30.36;101040.69;5069819;28;20093;-21
2021/10/01 12:07:49;;;;;;;7.70;2.80;;;;;;;20.76;30.23;101037.63;5069667;28;20021;-22
2021/10/01 12:10:14;;;;;;;6.55;2.63;;;;;;;21.51;29.22;101021.09;5070257;28;20496;-22
2021/10/01 12:13:01;;;;;;;5.80;2.50;;;;;;;23.03;27.48;101044.91;5069474;28;20043;-21
2021/10/01 12:15:48;;;;;;;6.47;2.40;;;;;;;23.71;26.86;101046.16;5069616;28;20032;-22
2021/10/01 12:18:36;;;;;;;4.18;2.65;;;;;;;22.72;27.63;101036.84;5069407;28;20393;-21
2021/10/01 12:21:06;;;;;;;7.75;2.42;;;;;;;23.20;28.48;101031.75;5069562;28;20024;-22
2021/10/01 12:23:35;;;;;;;4.93;2.40;;;;;;;22.46;27.35;101042.31;5051577;28;20403;-22
2021/10/01 12:26:33;;;;;;;5.25;2.60;;;;;;;22.35;28.45;101029.84;5069319;28;20040;-22
2021/10/01 12:28:58;;;;;;;7.28;2.50;;;;;;;22.33;27.51;101042.91;5046661;28;20725;-22
2021/10/01 12:31:29;;;;;;;4.72;2.53;;;;;;;21.08;29.83;101033.97;5069361;28;20036;-22
2021/10/01 12:33:55;;;;;;;6.55;3.05;;;;;;;20.79;29.73;101031.69;5052081;28;20036;-22
2021/10/01 12:36:22;;;;;;;14.25;5.88;;;;;;;21.74;28.31;101018.94;5051578;28;20511;-22
2021/10/01 12:38:47;;;;;;;5.28;2.58;;;;;;;22.45;27.51;101016.25;5051654;28;20558;-22
2021/10/01 12:41:14;;;;;;;10.10;4.05;;;;;;;22.92;26.99;100994.31;5068928;28;20062;-22
2021/10/01 12:43:55;;;;;;;3.85;2.38;;;;;;;23.72;27.59;101028.72;5069318;28;20043;-22
2021/10/01 12:46:39;;;;;;;8.77;3.42;;;;;;;22.59;27.84;101032.78;5069182;28;20597;-22
2021/10/01 12:49:11;;;;;;;9.43;4.00;;;;;;;21.73;28.58;101034.44;5069183;28;20415;-22
2021/10/01 12:51:37;;;;;;;5.47;2.60;;;;;;;21.24;29.65;101016.66;5069386;28;20107;-22
2021/10/01 12:54:23;;;;;;;7.95;2.92;;;;;;;21.05;29.43;101005.50;5068929;28;20052;-22
2021/10/01 12:57:07;;;;;;;8.73;2.95;;;;;;;20.75;30.41;101024.34;5068783;28;20477;-22
2021/10/01 13:00:02;;;;;;;10.45;2.80;;;;;;;20.86;29.92;101016.00;5069054;28;20028;-22
2021/10/01 13:02:43;;;;;;;5.97;2.80;;;;;;;21.55;28.69;101022.19;5067527;28;20033;-22
2021/10/01 13:05:24;;;;;;;6.15;2.53;;;;;;;22.72;27.45;101023.25;5068966;28;20024;-22